CFG9PZ EDDF-LKPR
Flight info
| Callsign | CFG9PZ |
|---|---|
| Flight time | 0h 43m |
| Altitude | 29000 |
| Route | SULUS6F SULUS Z650 TONSU Z35 ODOMO DCT LOMKI |
| Aircraft | A320/M-SDE3FGHIRWY/LB1 |
Departure
| Time | 2026-04-16 07:32 |
|---|---|
| Airport | Frankfurt Main Airport (EDDF) |
Arrival
| Time | 2026-04-16 08:15 |
|---|---|
| Airport | Václav Havel Airport Prague (LKPR) |
| Time | Latitude | Longitude | Altitude | Speed | Heading |
|---|---|---|---|---|---|
| 2026-04-16 07:00 | 50.04852 | 8.56946 | 356 ft | 0 kts | 295° |
| 2026-04-16 07:21 | 50.04844 | 8.56974 | 362 ft | 4 kts | 293° |
| 2026-04-16 07:21 | 50.04833 | 8.57011 | 365 ft | 4 kts | 289° |
| 2026-04-16 07:22 | 50.04831 | 8.57048 | 364 ft | 4 kts | 240° |
| 2026-04-16 07:22 | 50.04846 | 8.57071 | 364 ft | 1 kts | 204° |
| 2026-04-16 07:22 | 50.04829 | 8.57060 | 362 ft | 4 kts | 205° |
| 2026-04-16 07:22 | 50.04804 | 8.57042 | 359 ft | 4 kts | 205° |
| 2026-04-16 07:23 | 50.04792 | 8.57034 | 358 ft | 0 kts | 205° |
| 2026-04-16 07:25 | 50.04770 | 8.57017 | 362 ft | 3 kts | 206° |
| 2026-04-16 07:25 | 50.04754 | 8.57005 | 358 ft | 2 kts | 206° |
| 2026-04-16 07:26 | 50.04746 | 8.57000 | 357 ft | 1 kts | 205° |
| 2026-04-16 07:26 | 50.04745 | 8.56999 | 357 ft | 0 kts | 205° |
| 2026-04-16 07:27 | 50.04744 | 8.56998 | 358 ft | 2 kts | 205° |
| 2026-04-16 07:28 | 50.04685 | 8.56954 | 359 ft | 12 kts | 205° |
| 2026-04-16 07:28 | 50.04600 | 8.56908 | 358 ft | 14 kts | 194° |
| 2026-04-16 07:28 | 50.04512 | 8.56876 | 359 ft | 13 kts | 193° |
| 2026-04-16 07:28 | 50.04419 | 8.56846 | 362 ft | 14 kts | 188° |
| 2026-04-16 07:29 | 50.04317 | 8.56823 | 360 ft | 15 kts | 177° |
| 2026-04-16 07:29 | 50.04288 | 8.56955 | 361 ft | 15 kts | 70° |
| 2026-04-16 07:29 | 50.04322 | 8.57094 | 367 ft | 12 kts | 69° |
| 2026-04-16 07:29 | 50.04354 | 8.57228 | 361 ft | 16 kts | 70° |
| 2026-04-16 07:30 | 50.04390 | 8.57378 | 363 ft | 14 kts | 69° |
| 2026-04-16 07:30 | 50.04422 | 8.57511 | 361 ft | 12 kts | 69° |
| 2026-04-16 07:30 | 50.04420 | 8.57612 | 364 ft | 8 kts | 120° |
| 2026-04-16 07:30 | 50.04331 | 8.57688 | 362 ft | 19 kts | 161° |
| 2026-04-16 07:31 | 50.04242 | 8.57565 | 363 ft | 25 kts | 250° |
| 2026-04-16 07:31 | 50.04108 | 8.57004 | 365 ft | 89 kts | 249° |
| 2026-04-16 07:31 | 50.03819 | 8.55799 | 359 ft | 146 kts | 249° |
| 2026-04-16 07:31 | 50.03423 | 8.54184 | 703 ft | 161 kts | 247° |
| 2026-04-16 07:32 | 50.03025 | 8.52565 | 1441 ft | 160 kts | 249° |
| 2026-04-16 07:32 | 50.02524 | 8.50973 | 1929 ft | 174 kts | 228° |
| 2026-04-16 07:32 | 50.01426 | 8.49934 | 2231 ft | 199 kts | 201° |
| 2026-04-16 07:32 | 50.00061 | 8.49208 | 2672 ft | 212 kts | 199° |
| 2026-04-16 07:33 | 49.98572 | 8.49156 | 3252 ft | 223 kts | 162° |
| 2026-04-16 07:33 | 49.97357 | 8.50657 | 3916 ft | 230 kts | 123° |
| 2026-04-16 07:33 | 49.96544 | 8.52798 | 4683 ft | 231 kts | 120° |
| 2026-04-16 07:33 | 49.95741 | 8.55028 | 5212 ft | 246 kts | 119° |
| 2026-04-16 07:34 | 49.94895 | 8.57404 | 5766 ft | 257 kts | 119° |
| 2026-04-16 07:34 | 49.94178 | 8.60065 | 6246 ft | 277 kts | 103° |
| 2026-04-16 07:34 | 49.93965 | 8.63064 | 6996 ft | 283 kts | 92° |
| 2026-04-16 07:34 | 49.93804 | 8.66129 | 7816 ft | 288 kts | 101° |
| 2026-04-16 07:35 | 49.93121 | 8.69057 | 8624 ft | 292 kts | 120° |
| 2026-04-16 07:35 | 49.91869 | 8.71539 | 9429 ft | 295 kts | 139° |
| 2026-04-16 07:35 | 49.90221 | 8.73461 | 10229 ft | 298 kts | 145° |
| 2026-04-16 07:35 | 49.88643 | 8.75606 | 10825 ft | 310 kts | 133° |
| 2026-04-16 07:36 | 49.87335 | 8.78410 | 11050 ft | 333 kts | 119° |
| 2026-04-16 07:36 | 49.86179 | 8.81673 | 11286 ft | 355 kts | 118° |
| 2026-04-16 07:36 | 49.84982 | 8.85075 | 11824 ft | 364 kts | 116° |
| 2026-04-16 07:36 | 49.84213 | 8.88820 | 12472 ft | 369 kts | 97° |
| 2026-04-16 07:37 | 49.84277 | 8.92789 | 13145 ft | 372 kts | 78° |
| 2026-04-16 07:37 | 49.84802 | 8.96738 | 13822 ft | 377 kts | 77° |
| 2026-04-16 07:37 | 49.85353 | 9.00729 | 14421 ft | 381 kts | 77° |
| 2026-04-16 07:37 | 49.85917 | 9.04766 | 15017 ft | 385 kts | 77° |
| 2026-04-16 07:38 | 49.86486 | 9.08849 | 15616 ft | 389 kts | 77° |
| 2026-04-16 07:38 | 49.87053 | 9.12969 | 16223 ft | 393 kts | 77° |
| 2026-04-16 07:38 | 49.87619 | 9.17132 | 16823 ft | 396 kts | 77° |
| 2026-04-16 07:38 | 49.88187 | 9.21335 | 17423 ft | 400 kts | 77° |
| 2026-04-16 07:39 | 49.88756 | 9.25576 | 18023 ft | 404 kts | 77° |
| 2026-04-16 07:39 | 49.89329 | 9.29855 | 18593 ft | 407 kts | 77° |
| 2026-04-16 07:39 | 49.89906 | 9.34180 | 19112 ft | 411 kts | 77° |
| 2026-04-16 07:39 | 49.90485 | 9.38540 | 19605 ft | 415 kts | 77° |
| 2026-04-16 07:40 | 49.91070 | 9.42943 | 20119 ft | 419 kts | 77° |
| 2026-04-16 07:40 | 49.91660 | 9.47394 | 20602 ft | 423 kts | 77° |
| 2026-04-16 07:40 | 49.92252 | 9.51881 | 21091 ft | 427 kts | 77° |
| 2026-04-16 07:40 | 49.92851 | 9.56415 | 21565 ft | 431 kts | 77° |
| 2026-04-16 07:41 | 49.93455 | 9.60991 | 22038 ft | 434 kts | 77° |
| 2026-04-16 07:41 | 49.94061 | 9.65603 | 22516 ft | 438 kts | 77° |
| 2026-04-16 07:41 | 49.94666 | 9.70259 | 22977 ft | 441 kts | 77° |
| 2026-04-16 07:41 | 49.95271 | 9.74936 | 23409 ft | 445 kts | 77° |
| 2026-04-16 07:42 | 49.95879 | 9.79663 | 23836 ft | 448 kts | 77° |
| 2026-04-16 07:42 | 49.96492 | 9.84425 | 24195 ft | 451 kts | 77° |
| 2026-04-16 07:42 | 49.97109 | 9.89218 | 24554 ft | 454 kts | 77° |
| 2026-04-16 07:42 | 49.97729 | 9.94039 | 24905 ft | 456 kts | 77° |
| 2026-04-16 07:43 | 49.98349 | 9.98890 | 25246 ft | 459 kts | 77° |
| 2026-04-16 07:43 | 49.98969 | 10.03770 | 25595 ft | 462 kts | 77° |
| 2026-04-16 07:43 | 49.99591 | 10.08685 | 25912 ft | 465 kts | 77° |
| 2026-04-16 07:43 | 50.00212 | 10.13622 | 26256 ft | 467 kts | 77° |
| 2026-04-16 07:44 | 50.00834 | 10.18586 | 26576 ft | 469 kts | 77° |
| 2026-04-16 07:44 | 50.01458 | 10.23583 | 26889 ft | 472 kts | 77° |
| 2026-04-16 07:44 | 50.02085 | 10.28600 | 27200 ft | 474 kts | 77° |
| 2026-04-16 07:44 | 50.02716 | 10.33649 | 27505 ft | 477 kts | 78° |
| 2026-04-16 07:45 | 50.03348 | 10.38721 | 27803 ft | 479 kts | 78° |
| 2026-04-16 07:45 | 50.03983 | 10.43827 | 28095 ft | 482 kts | 78° |
| 2026-04-16 07:45 | 50.04618 | 10.48953 | 28382 ft | 484 kts | 78° |
| 2026-04-16 07:45 | 50.05251 | 10.54101 | 28657 ft | 486 kts | 78° |
| 2026-04-16 07:46 | 50.05879 | 10.59282 | 28922 ft | 488 kts | 78° |
| 2026-04-16 07:46 | 50.06506 | 10.64489 | 29161 ft | 490 kts | 78° |
| 2026-04-16 07:46 | 50.06903 | 10.69738 | 29223 ft | 487 kts | 88° |
| 2026-04-16 07:46 | 50.06708 | 10.74984 | 29219 ft | 485 kts | 99° |
| 2026-04-16 07:47 | 50.05983 | 10.80086 | 29221 ft | 483 kts | 108° |
| 2026-04-16 07:47 | 50.03862 | 10.89984 | 29224 ft | 482 kts | 109° |
| 2026-04-16 07:48 | 50.01791 | 10.99904 | 29224 ft | 482 kts | 109° |
| 2026-04-16 07:48 | 49.99710 | 11.09822 | 29220 ft | 483 kts | 109° |
| 2026-04-16 07:49 | 49.97633 | 11.19733 | 29209 ft | 483 kts | 106° |
| 2026-04-16 07:49 | 49.96741 | 11.30046 | 29211 ft | 483 kts | 92° |
| 2026-04-16 07:50 | 49.96425 | 11.40464 | 29205 ft | 483 kts | 92° |
| 2026-04-16 07:50 | 49.96092 | 11.50881 | 29187 ft | 483 kts | 93° |
| 2026-04-16 07:51 | 49.95743 | 11.61297 | 29194 ft | 483 kts | 93° |
| 2026-04-16 07:51 | 49.95446 | 11.69945 | 29201 ft | 483 kts | 93° |
| 2026-04-16 07:52 | 49.95075 | 11.80352 | 29204 ft | 483 kts | 93° |
| 2026-04-16 07:52 | 49.94701 | 11.90755 | 29195 ft | 483 kts | 93° |
| 2026-04-16 07:53 | 49.94390 | 12.01167 | 29184 ft | 483 kts | 92° |
| 2026-04-16 07:53 | 49.94202 | 12.11588 | 29195 ft | 483 kts | 91° |
| 2026-04-16 07:54 | 49.94018 | 12.22011 | 29184 ft | 483 kts | 91° |
| 2026-04-16 07:54 | 49.93789 | 12.32432 | 29190 ft | 483 kts | 92° |
| 2026-04-16 07:55 | 49.93516 | 12.42856 | 29202 ft | 483 kts | 92° |
| 2026-04-16 07:55 | 49.93212 | 12.53275 | 29190 ft | 483 kts | 92° |
| 2026-04-16 07:56 | 49.92900 | 12.63703 | 29200 ft | 483 kts | 92° |
| 2026-04-16 07:56 | 49.92582 | 12.74119 | 29118 ft | 485 kts | 92° |
| 2026-04-16 07:56 | 49.92422 | 12.79347 | 28839 ft | 485 kts | 92° |
| 2026-04-16 07:57 | 49.92259 | 12.84564 | 28419 ft | 483 kts | 92° |
| 2026-04-16 07:57 | 49.92094 | 12.89751 | 27648 ft | 480 kts | 92° |
| 2026-04-16 07:57 | 49.91930 | 12.94902 | 26940 ft | 476 kts | 92° |
| 2026-04-16 07:57 | 49.91763 | 13.00017 | 26266 ft | 473 kts | 92° |
| 2026-04-16 07:58 | 49.91593 | 13.05102 | 25551 ft | 471 kts | 92° |
| 2026-04-16 07:58 | 49.91421 | 13.10166 | 24866 ft | 469 kts | 92° |
| 2026-04-16 07:58 | 49.91248 | 13.15203 | 24196 ft | 466 kts | 92° |
| 2026-04-16 07:58 | 49.91070 | 13.20215 | 23469 ft | 464 kts | 92° |
| 2026-04-16 07:59 | 49.90892 | 13.25194 | 22802 ft | 460 kts | 92° |
| 2026-04-16 07:59 | 49.90717 | 13.30108 | 22249 ft | 453 kts | 92° |
| 2026-04-16 07:59 | 49.90544 | 13.34966 | 21687 ft | 448 kts | 92° |
| 2026-04-16 07:59 | 49.90388 | 13.39756 | 21161 ft | 442 kts | 90° |
| 2026-04-16 08:00 | 49.90624 | 13.44477 | 20624 ft | 436 kts | 78° |
| 2026-04-16 08:00 | 49.91402 | 13.48974 | 20141 ft | 429 kts | 67° |
| 2026-04-16 08:00 | 49.92663 | 13.53115 | 19652 ft | 421 kts | 57° |
| 2026-04-16 08:00 | 49.94330 | 13.56799 | 19188 ft | 414 kts | 49° |
| 2026-04-16 08:01 | 49.96087 | 13.60319 | 18711 ft | 411 kts | 49° |
| 2026-04-16 08:01 | 49.97829 | 13.63832 | 18177 ft | 409 kts | 50° |
| 2026-04-16 08:01 | 49.99547 | 13.67323 | 17680 ft | 404 kts | 50° |
| 2026-04-16 08:01 | 50.01245 | 13.70784 | 17173 ft | 400 kts | 50° |
| 2026-04-16 08:02 | 50.02924 | 13.74212 | 16685 ft | 397 kts | 50° |
| 2026-04-16 08:02 | 50.06244 | 13.80995 | 15663 ft | 392 kts | 50° |
| 2026-04-16 08:02 | 50.07802 | 13.84465 | 15128 ft | 392 kts | 58° |
| 2026-04-16 08:03 | 50.09014 | 13.88255 | 14573 ft | 390 kts | 63° |
| 2026-04-16 08:03 | 50.10179 | 13.92106 | 13837 ft | 394 kts | 63° |
| 2026-04-16 08:03 | 50.11348 | 13.95951 | 13278 ft | 391 kts | 63° |
| 2026-04-16 08:03 | 50.12502 | 13.99753 | 12742 ft | 386 kts | 63° |
| 2026-04-16 08:04 | 50.13641 | 14.03519 | 12188 ft | 382 kts | 63° |
| 2026-04-16 08:04 | 50.14766 | 14.07246 | 11663 ft | 378 kts | 63° |
| 2026-04-16 08:04 | 50.15879 | 14.10944 | 11103 ft | 375 kts | 63° |
| 2026-04-16 08:04 | 50.16977 | 14.14604 | 10573 ft | 371 kts | 63° |
| 2026-04-16 08:05 | 50.18042 | 14.18162 | 10227 ft | 350 kts | 63° |
| 2026-04-16 08:05 | 50.19041 | 14.21501 | 9893 ft | 329 kts | 63° |
| 2026-04-16 08:05 | 50.19979 | 14.24650 | 9558 ft | 312 kts | 63° |
| 2026-04-16 08:05 | 50.20876 | 14.27661 | 9213 ft | 304 kts | 63° |
| 2026-04-16 08:06 | 50.21764 | 14.30634 | 8868 ft | 300 kts | 63° |
| 2026-04-16 08:06 | 50.22641 | 14.33569 | 8531 ft | 296 kts | 63° |
| 2026-04-16 08:06 | 50.23494 | 14.36432 | 8201 ft | 293 kts | 63° |
| 2026-04-16 08:06 | 50.24362 | 14.39342 | 7867 ft | 291 kts | 63° |
| 2026-04-16 08:07 | 50.25210 | 14.42196 | 7538 ft | 288 kts | 63° |
| 2026-04-16 08:07 | 50.26039 | 14.44980 | 7260 ft | 277 kts | 63° |
| 2026-04-16 08:07 | 50.26832 | 14.47649 | 6996 ft | 264 kts | 63° |
| 2026-04-16 08:07 | 50.27422 | 14.50273 | 6725 ft | 251 kts | 82° |
| 2026-04-16 08:08 | 50.27277 | 14.52918 | 6440 ft | 241 kts | 109° |
| 2026-04-16 08:08 | 50.26501 | 14.55153 | 6151 ft | 230 kts | 132° |
| 2026-04-16 08:08 | 50.25315 | 14.56702 | 5868 ft | 218 kts | 154° |
| 2026-04-16 08:08 | 50.23966 | 14.57677 | 5644 ft | 210 kts | 158° |
| 2026-04-16 08:09 | 50.22588 | 14.58191 | 5407 ft | 198 kts | 185° |
| 2026-04-16 08:09 | 50.21291 | 14.57687 | 5336 ft | 191 kts | 211° |
| 2026-04-16 08:09 | 50.20317 | 14.56425 | 5189 ft | 178 kts | 236° |
| 2026-04-16 08:09 | 50.19742 | 14.54751 | 5003 ft | 175 kts | 247° |
| 2026-04-16 08:10 | 50.19236 | 14.53034 | 4761 ft | 174 kts | 247° |
| 2026-04-16 08:10 | 50.18732 | 14.51327 | 4532 ft | 173 kts | 247° |
| 2026-04-16 08:10 | 50.18233 | 14.49643 | 4298 ft | 173 kts | 246° |
| 2026-04-16 08:10 | 50.17729 | 14.47941 | 4069 ft | 172 kts | 246° |
| 2026-04-16 08:11 | 50.17225 | 14.46243 | 3853 ft | 172 kts | 246° |
| 2026-04-16 08:11 | 50.16723 | 14.44551 | 3615 ft | 171 kts | 246° |
| 2026-04-16 08:11 | 50.16217 | 14.42849 | 3421 ft | 171 kts | 246° |
| 2026-04-16 08:11 | 50.15725 | 14.41193 | 3158 ft | 170 kts | 246° |
| 2026-04-16 08:12 | 50.15229 | 14.39528 | 2924 ft | 169 kts | 246° |
| 2026-04-16 08:12 | 50.14743 | 14.37894 | 2690 ft | 159 kts | 246° |
| 2026-04-16 08:12 | 50.14301 | 14.36414 | 2491 ft | 144 kts | 246° |
| 2026-04-16 08:12 | 50.13888 | 14.35025 | 2297 ft | 139 kts | 246° |
| 2026-04-16 08:13 | 50.13485 | 14.33676 | 2112 ft | 136 kts | 246° |
| 2026-04-16 08:13 | 50.13088 | 14.32342 | 1907 ft | 135 kts | 245° |
| 2026-04-16 08:13 | 50.12693 | 14.31022 | 1759 ft | 133 kts | 246° |
| 2026-04-16 08:13 | 50.12300 | 14.29711 | 1516 ft | 134 kts | 245° |
| 2026-04-16 08:14 | 50.11900 | 14.28395 | 1352 ft | 134 kts | 245° |
| 2026-04-16 08:14 | 50.11508 | 14.27078 | 1171 ft | 133 kts | 245° |
| 2026-04-16 08:14 | 50.11180 | 14.25967 | 1154 ft | 88 kts | 245° |
| 2026-04-16 08:14 | 50.10988 | 14.25308 | 1160 ft | 54 kts | 245° |
| 2026-04-16 08:15 | 50.10843 | 14.24816 | 1153 ft | 41 kts | 245° |
| 2026-04-16 08:15 | 50.10751 | 14.24563 | 1162 ft | 23 kts | 234° |
| 2026-04-16 08:15 | 50.10634 | 14.24392 | 1164 ft | 23 kts | 216° |
| 2026-04-16 08:15 | 50.10499 | 14.24251 | 1164 ft | 22 kts | 206° |
| 2026-04-16 08:16 | 50.10376 | 14.24292 | 1168 ft | 17 kts | 127° |
| 2026-04-16 08:16 | 50.10370 | 14.24458 | 1166 ft | 15 kts | 74° |
| 2026-04-16 08:16 | 50.10392 | 14.24613 | 1166 ft | 14 kts | 76° |
| 2026-04-16 08:16 | 50.10426 | 14.24749 | 1164 ft | 15 kts | 64° |
| 2026-04-16 08:17 | 50.10482 | 14.24926 | 1163 ft | 19 kts | 63° |
| 2026-04-16 08:17 | 50.10542 | 14.25119 | 1164 ft | 25 kts | 65° |
| 2026-04-16 08:17 | 50.10585 | 14.25379 | 1171 ft | 24 kts | 79° |
| 2026-04-16 08:17 | 50.10664 | 14.25595 | 1173 ft | 25 kts | 35° |
| 2026-04-16 08:18 | 50.10803 | 14.25742 | 1166 ft | 24 kts | 34° |
| 2026-04-16 08:19 | 50.10920 | 14.26379 | 1170 ft | 19 kts | 213° |
| 2026-04-16 08:20 | 50.10825 | 14.26315 | 1170 ft | 14 kts | 162° |
| 2026-04-16 08:20 | 50.10766 | 14.26428 | 1173 ft | 13 kts | 124° |
| 2026-04-16 08:20 | 50.10717 | 14.26468 | 1171 ft | 7 kts | 195° |
| 2026-04-16 08:20 | 50.10679 | 14.26431 | 1173 ft | 4 kts | 214° |
| 2026-04-16 08:21 | 50.10675 | 14.26426 | 1171 ft | 0 kts | 214° |